Time;durP1;ratioP1;P1;durP2;ratioP2;P2;SDS_P1;SDS_P2;PMS_P1;PMS_P2;Temp;Humidity;BMP_temperature;BMP_pressure;BME280_temperature;BME280_humidity;BME280_pressure;Samples;Min_cycle;Max_cycle;Signal;HPM_P1;HPM_P2
2022/03/18 00:02:11;;;;;;;;;;;3.30;99.90;;;;;;5095328;28;20275;-55
2022/03/18 00:04:37;;;;;;;;;;;3.40;99.90;;;;;;5095709;28;20568;-56
2022/03/18 00:07:03;;;;;;;;;;;3.40;99.90;;;;;;5095008;28;20289;-56
2022/03/18 00:09:28;;;;;;;;;;;3.40;99.90;;;;;;5095234;28;20379;-56
2022/03/18 00:11:53;;;;;;;;;;;3.30;99.90;;;;;;5095571;28;19924;-55
2022/03/18 00:14:19;;;;;;;;;;;3.30;99.90;;;;;;5094697;28;19909;-55
2022/03/18 00:16:45;;;;;;;;;;;3.30;99.90;;;;;;5095547;28;19915;-55
2022/03/18 00:19:11;;;;;;;;;;;3.30;99.90;;;;;;5095136;28;20271;-56
2022/03/18 00:21:36;;;;;;;;;;;3.40;99.90;;;;;;5094622;28;20250;-55
2022/03/18 00:24:03;;;;;;;;;;;3.40;99.90;;;;;;5094923;28;19919;-55
2022/03/18 00:26:29;;;;;;;;;;;3.40;99.90;;;;;;5095371;28;19915;-54
2022/03/18 00:28:55;;;;;;;;;;;3.40;99.90;;;;;;5094787;28;19915;-55
2022/03/18 00:31:20;;;;;;;;;;;3.30;99.90;;;;;;5094628;28;19920;-55
2022/03/18 00:33:46;;;;;;;;;;;3.20;99.90;;;;;;5094824;28;19959;-56
2022/03/18 00:36:11;;;;;;;;;;;3.20;99.90;;;;;;5094423;28;19912;-56
2022/03/18 00:38:37;;;;;;;;;;;3.10;99.90;;;;;;5095065;28;19943;-55
2022/03/18 00:41:02;;;;;;;;;;;3.10;99.90;;;;;;5094728;28;19908;-57
2022/03/18 00:43:28;;;;;;;;;;;3.10;99.90;;;;;;5094289;28;19908;-55
2022/03/18 00:45:53;;;;;;;;;;;3.10;99.90;;;;;;5094960;28;19908;-55
2022/03/18 00:53:47;;;;;;;;;;;3.00;99.90;;;;;;5095100;28;19919;-55
2022/03/18 00:56:13;;;;;;;;;;;3.00;99.90;;;;;;5093962;28;19908;-56
2022/03/18 00:58:38;;;;;;;;;;;3.00;99.90;;;;;;5094705;28;19932;-55
2022/03/18 01:01:03;;;;;;;;;;;3.00;99.90;;;;;;5094471;28;20558;-55
2022/03/18 01:03:29;;;;;;;;;;;3.00;99.90;;;;;;5093988;28;19915;-56
2022/03/18 01:05:54;;;;;;;;;;;3.00;99.90;;;;;;5094380;28;20058;-56
2022/03/18 01:08:20;;;;;;;;;;;3.10;99.90;;;;;;5093840;28;19915;-55
2022/03/18 01:10:45;;;;;;;;;;;3.10;99.90;;;;;;5093872;28;19920;-55
2022/03/18 01:13:11;;;;;;;;;;;3.10;99.90;;;;;;5094084;28;19908;-56
2022/03/18 01:15:36;;;;;;;;;;;3.00;99.90;;;;;;5094242;28;20383;-54
2022/03/18 01:18:02;;;;;;;;;;;3.00;99.90;;;;;;5093485;28;19952;-55
2022/03/18 01:20:28;;;;;;;;;;;2.80;99.90;;;;;;5094131;28;19909;-55
2022/03/18 01:22:54;;;;;;;;;;;2.70;99.90;;;;;;5094349;28;19908;-56
2022/03/18 01:25:19;;;;;;;;;;;2.70;99.90;;;;;;5093152;28;20343;-55
2022/03/18 01:27:45;;;;;;;;;;;2.70;99.90;;;;;;5093810;28;19916;-56
2022/03/18 01:30:11;;;;;;;;;;;2.70;99.90;;;;;;5093353;28;19926;-56
2022/03/18 01:32:36;;;;;;;;;;;2.60;99.90;;;;;;5093574;28;19916;-55
2022/03/18 01:35:02;;;;;;;;;;;2.60;99.90;;;;;;5093441;28;20006;-55
2022/03/18 01:37:27;;;;;;;;;;;2.60;99.90;;;;;;5093812;28;19909;-56
2022/03/18 01:39:53;;;;;;;;;;;2.60;99.90;;;;;;5093347;28;19961;-55
2022/03/18 01:42:18;;;;;;;;;;;2.70;99.90;;;;;;5093528;28;19943;-56
2022/03/18 01:44:44;;;;;;;;;;;2.70;99.90;;;;;;5093744;28;19912;-54
2022/03/18 01:47:10;;;;;;;;;;;2.80;99.90;;;;;;5093131;28;19954;-54
2022/03/18 01:49:35;;;;;;;;;;;2.80;99.90;;;;;;5093603;28;19940;-55
2022/03/18 01:52:01;;;;;;;;;;;2.80;99.90;;;;;;5092919;28;19930;-55
2022/03/18 01:54:45;;;;;;;;;;;2.90;99.90;;;;;;5093385;28;19908;-56
2022/03/18 01:57:12;;;;;;;;;;;3.00;99.90;;;;;;5093434;28;19908;-55
2022/03/18 01:59:38;;;;;;;;;;;3.10;99.90;;;;;;5093027;28;19908;-55
2022/03/18 02:02:03;;;;;;;;;;;3.10;99.90;;;;;;5093312;28;20358;-55
2022/03/18 02:04:29;;;;;;;;;;;3.20;99.90;;;;;;5093056;28;19915;-55
2022/03/18 02:06:56;;;;;;;;;;;3.20;99.90;;;;;;5092892;28;19976;-55
2022/03/18 02:09:21;;;;;;;;;;;3.30;99.90;;;;;;5093461;28;19912;-55
2022/03/18 02:11:47;;;;;;;;;;;3.30;99.90;;;;;;5093314;28;19923;-55
2022/03/18 02:14:12;;;;;;;;;;;3.30;99.90;;;;;;5092591;28;19909;-56
2022/03/18 02:16:39;;;;;;;;;;;3.30;99.90;;;;;;5092768;28;19970;-55
2022/03/18 02:19:06;;;;;;;;;;;3.40;99.90;;;;;;5092803;28;20375;-55
2022/03/18 02:21:34;;;;;;;;;;;3.50;99.90;;;;;;5092603;28;19908;-56
2022/03/18 02:23:59;;;;;;;;;;;3.50;99.90;;;;;;5093066;28;19915;-56
2022/03/18 02:26:25;;;;;;;;;;;3.40;99.90;;;;;;5091658;28;19920;-56
2022/03/18 02:28:51;;;;;;;;;;;3.40;99.90;;;;;;5091447;28;19955;-56
2022/03/18 02:31:16;;;;;;;;;;;3.40;99.90;;;;;;5092150;28;19978;-55
2022/03/18 02:33:42;;;;;;;;;;;3.50;99.90;;;;;;5093100;28;19947;-56
2022/03/18 02:36:07;;;;;;;;;;;3.50;99.90;;;;;;5092333;28;19959;-56
2022/03/18 02:38:33;;;;;;;;;;;3.50;99.90;;;;;;5092925;28;20425;-56
2022/03/18 02:40:58;;;;;;;;;;;3.50;99.90;;;;;;5092647;28;19908;-55
2022/03/18 02:43:23;;;;;;;;;;;3.50;99.90;;;;;;5092400;28;19961;-56
2022/03/18 02:45:49;;;;;;;;;;;3.60;99.90;;;;;;5092840;28;19912;-55
2022/03/18 02:48:14;;;;;;;;;;;3.60;99.90;;;;;;5092127;28;19943;-56
2022/03/18 02:50:40;;;;;;;;;;;3.60;99.90;;;;;;5092817;28;19916;-55
2022/03/18 02:53:06;;;;;;;;;;;3.60;99.90;;;;;;5092043;28;20351;-55
2022/03/18 02:55:32;;;;;;;;;;;3.60;99.90;;;;;;5091868;28;20465;-56
2022/03/18 02:57:57;;;;;;;;;;;3.60;99.90;;;;;;5092548;28;19934;-55
2022/03/18 03:00:25;;;;;;;;;;;3.60;99.90;;;;;;5092719;28;20280;-55
2022/03/18 03:02:51;;;;;;;;;;;3.50;99.90;;;;;;5092343;28;19908;-55
2022/03/18 03:08:00;;;;;;;;;;;3.30;99.90;;;;;;5092930;28;19915;-54
2022/03/18 03:10:28;;;;;;;;;;;3.20;99.90;;;;;;5092131;28;19908;-55
2022/03/18 03:12:54;;;;;;;;;;;3.20;99.90;;;;;;5092200;28;20003;-55
2022/03/18 03:15:19;;;;;;;;;;;3.10;99.90;;;;;;5092519;28;20454;-56
2022/03/18 03:17:45;;;;;;;;;;;3.00;99.90;;;;;;5091975;28;19909;-55
2022/03/18 03:20:11;;;;;;;;;;;3.00;99.90;;;;;;5074070;28;19969;-56
2022/03/18 03:22:36;;;;;;;;;;;2.90;99.90;;;;;;5092424;28;19922;-55
2022/03/18 03:25:02;;;;;;;;;;;2.80;99.90;;;;;;5091948;28;19912;-55
2022/03/18 03:27:30;;;;;;;;;;;2.70;99.90;;;;;;5092508;28;19948;-55
2022/03/18 03:29:59;;;;;;;;;;;2.70;99.90;;;;;;5093868;28;19921;-55
2022/03/18 03:32:25;;;;;;;;;;;2.70;99.90;;;;;;5094972;28;19941;-56
2022/03/18 03:34:51;;;;;;;;;;;2.70;99.90;;;;;;5096490;28;19936;-55
2022/03/18 03:37:16;;;;;;;;;;;2.70;99.90;;;;;;5095916;28;19915;-58
2022/03/18 03:39:42;;;;;;;;;;;2.70;99.90;;;;;;5095855;28;19963;-56
2022/03/18 03:42:07;;;;;;;;;;;2.70;99.90;;;;;;5095842;28;19951;-56
2022/03/18 03:44:33;;;;;;;;;;;2.70;99.90;;;;;;5095687;28;19908;-56
2022/03/18 03:46:58;;;;;;;;;;;2.70;99.90;;;;;;5095826;28;20351;-56
2022/03/18 03:49:24;;;;;;;;;;;2.60;99.90;;;;;;5096137;28;19915;-56
2022/03/18 03:51:49;;;;;;;;;;;2.60;99.90;;;;;;5095356;28;19916;-55
2022/03/18 03:54:14;;;;;;;;;;;2.60;99.90;;;;;;5095164;28;20275;-55
2022/03/18 03:56:40;;;;;;;;;;;2.60;99.90;;;;;;5095661;28;20301;-55
2022/03/18 03:59:05;;;;;;;;;;;2.60;99.90;;;;;;5095031;28;20259;-55
2022/03/18 04:01:31;;;;;;;;;;;2.60;99.90;;;;;;5095591;28;19908;-56
2022/03/18 04:03:58;;;;;;;;;;;2.60;99.90;;;;;;5095919;28;19930;-55
2022/03/18 04:06:23;;;;;;;;;;;2.60;99.90;;;;;;5077143;28;19912;-56
2022/03/18 04:08:49;;;;;;;;;;;2.80;99.90;;;;;;5095536;28;19964;-56
2022/03/18 04:11:14;;;;;;;;;;;2.80;99.90;;;;;;5095256;28;19916;-56
2022/03/18 04:13:40;;;;;;;;;;;2.80;99.90;;;;;;5094649;28;19912;-56
2022/03/18 04:16:05;;;;;;;;;;;2.80;99.90;;;;;;5095303;28;19908;-56
2022/03/18 04:18:30;;;;;;;;;;;2.80;99.90;;;;;;5095369;28;20351;-55
2022/03/18 04:20:56;;;;;;;;;;;2.80;99.90;;;;;;5094201;28;19989;-54
2022/03/18 04:23:21;;;;;;;;;;;2.80;99.90;;;;;;5095325;28;19953;-55
2022/03/18 04:25:47;;;;;;;;;;;2.80;99.90;;;;;;5095332;28;19908;-55
2022/03/18 04:28:13;;;;;;;;;;;2.70;99.90;;;;;;5094555;28;19912;-56
2022/03/18 04:30:39;;;;;;;;;;;2.70;99.90;;;;;;5094820;28;19926;-56
2022/03/18 04:33:04;;;;;;;;;;;2.70;99.90;;;;;;5094657;28;20308;-56
2022/03/18 04:35:32;;;;;;;;;;;2.70;99.90;;;;;;5094655;28;19909;-56
2022/03/18 04:37:57;;;;;;;;;;;2.60;99.90;;;;;;5094788;28;20339;-54
2022/03/18 04:40:23;;;;;;;;;;;2.60;99.90;;;;;;5094574;28;19918;-55
2022/03/18 04:42:48;;;;;;;;;;;2.60;99.90;;;;;;5094412;28;19908;-56
2022/03/18 04:45:14;;;;;;;;;;;2.60;99.90;;;;;;5094818;28;19936;-55
2022/03/18 04:47:39;;;;;;;;;;;2.70;99.90;;;;;;5094237;28;19912;-56
2022/03/18 04:50:05;;;;;;;;;;;2.70;99.90;;;;;;5094742;28;19908;-54
2022/03/18 04:52:30;;;;;;;;;;;2.80;99.90;;;;;;5094776;28;19918;-56
2022/03/18 04:54:56;;;;;;;;;;;2.90;99.90;;;;;;5094038;28;19908;-56
2022/03/18 04:57:22;;;;;;;;;;;3.00;99.90;;;;;;5094627;28;19908;-56
2022/03/18 04:59:49;;;;;;;;;;;3.10;99.90;;;;;;5094543;28;19908;-55
2022/03/18 05:02:15;;;;;;;;;;;3.10;99.90;;;;;;5093933;28;19923;-55
2022/03/18 05:04:44;;;;;;;;;;;3.20;99.90;;;;;;5094614;28;19961;-55
2022/03/18 05:07:11;;;;;;;;;;;3.20;99.90;;;;;;5093914;28;19931;-56
2022/03/18 05:09:39;;;;;;;;;;;3.20;99.90;;;;;;5093756;28;19912;-56
2022/03/18 05:12:09;;;;;;;;;;;3.10;99.90;;;;;;5094151;28;19916;-56
2022/03/18 05:14:35;;;;;;;;;;;3.00;99.90;;;;;;5094263;28;20240;-55
2022/03/18 05:17:01;;;;;;;;;;;2.90;99.90;;;;;;5093494;28;19915;-56
2022/03/18 05:19:26;;;;;;;;;;;2.80;99.90;;;;;;5094280;28;19987;-55
2022/03/18 05:21:52;;;;;;;;;;;2.70;99.90;;;;;;5094239;28;19912;-56
2022/03/18 05:24:17;;;;;;;;;;;2.70;99.90;;;;;;5093221;28;20374;-56
2022/03/18 05:26:43;;;;;;;;;;;2.70;99.90;;;;;;5093952;28;20338;-56
2022/03/18 05:29:09;;;;;;;;;;;2.60;99.90;;;;;;5093691;28;19908;-56
2022/03/18 05:31:36;;;;;;;;;;;2.60;99.90;;;;;;5093145;28;20002;-56
2022/03/18 05:34:01;;;;;;;;;;;2.50;99.90;;;;;;5093887;28;19908;-55
2022/03/18 05:36:26;;;;;;;;;;;2.50;99.90;;;;;;5093903;28;19908;-55
2022/03/18 05:38:52;;;;;;;;;;;2.50;99.90;;;;;;5093401;28;19912;-55
2022/03/18 05:41:17;;;;;;;;;;;2.50;99.90;;;;;;5093749;28;20378;-56
2022/03/18 05:43:43;;;;;;;;;;;2.50;99.90;;;;;;5093880;28;20002;-56
2022/03/18 05:46:09;;;;;;;;;;;2.50;99.90;;;;;;5093007;28;19969;-55
2022/03/18 05:48:35;;;;;;;;;;;2.50;99.90;;;;;;5093437;28;20024;-56
2022/03/18 05:51:00;;;;;;;;;;;2.40;99.90;;;;;;5092829;28;19916;-56
2022/03/18 05:53:26;;;;;;;;;;;2.40;99.90;;;;;;5092765;28;20242;-56
2022/03/18 05:58:36;;;;;;;;;;;2.40;99.90;;;;;;5093203;28;20274;-56
2022/03/18 06:01:02;;;;;;;;;;;2.50;99.90;;;;;;5093325;28;19908;-55
2022/03/18 06:03:28;;;;;;;;;;;2.60;99.90;;;;;;5093221;28;20010;-56
2022/03/18 06:05:53;;;;;;;;;;;2.60;99.90;;;;;;5092348;28;19998;-55
2022/03/18 06:13:47;;;;;;;;;;;2.50;99.90;;;;;;5072664;28;19930;-55
2022/03/18 06:16:12;;;;;;;;;;;2.50;99.90;;;;;;5072620;28;19908;-56
2022/03/18 06:18:38;;;;;;;;;;;2.50;99.90;;;;;;5086968;28;19962;-56
2022/03/18 06:21:07;;;;;;;;;;;2.50;99.90;;;;;;5092400;28;19953;-55
2022/03/18 06:23:33;;;;;;;;;;;2.50;99.90;;;;;;5093278;28;19908;-55
2022/03/18 06:25:59;;;;;;;;;;;2.60;99.90;;;;;;5092829;28;19908;-55
2022/03/18 06:28:24;;;;;;;;;;;2.50;99.90;;;;;;5092174;28;20007;-56
2022/03/18 06:30:50;;;;;;;;;;;2.50;99.90;;;;;;5105500;28;19920;-56
2022/03/18 06:33:15;;;;;;;;;;;2.50;99.90;;;;;;5096542;28;19916;-56
2022/03/18 06:35:41;;;;;;;;;;;2.50;99.90;;;;;;5108926;28;19915;-55
2022/03/18 06:38:06;;;;;;;;;;;2.50;99.90;;;;;;5110581;28;21128;-56
2022/03/18 06:40:32;;;;;;;;;;;2.60;99.90;;;;;;5092649;28;20294;-55
2022/03/18 06:42:57;;;;;;;;;;;2.60;99.90;;;;;;5092433;28;19969;-56
2022/03/18 06:45:23;;;;;;;;;;;2.70;99.90;;;;;;5092886;28;19912;-56
2022/03/18 06:47:49;;;;;;;;;;;2.70;99.90;;;;;;5074487;28;19912;-56
2022/03/18 06:50:14;;;;;;;;;;;2.70;99.90;;;;;;5094442;28;19908;-56
2022/03/18 06:52:40;;;;;;;;;;;2.80;99.90;;;;;;5113127;28;19924;-56
2022/03/18 06:55:06;;;;;;;;;;;2.80;99.90;;;;;;5112258;28;19908;-56
2022/03/18 06:57:31;;;;;;;;;;;2.80;99.90;;;;;;5113188;28;19964;-55
2022/03/18 06:59:57;;;;;;;;;;;2.90;99.90;;;;;;5112688;28;19915;-56
2022/03/18 07:02:22;;;;;;;;;;;3.00;99.90;;;;;;5112611;28;19919;-56
2022/03/18 07:04:48;;;;;;;;;;;3.10;99.90;;;;;;5116647;28;20357;-56
2022/03/18 07:07:13;;;;;;;;;;;3.20;99.90;;;;;;5116962;28;19911;-55
2022/03/18 07:09:38;;;;;;;;;;;3.30;99.90;;;;;;5116827;28;19908;-56
2022/03/18 07:12:04;;;;;;;;;;;3.40;99.90;;;;;;5116711;28;19923;-56
2022/03/18 07:14:30;;;;;;;;;;;3.60;99.90;;;;;;5105205;28;19912;-55
2022/03/18 07:19:39;;;;;;;;;;;3.70;99.90;;;;;;5115019;28;20246;-56
2022/03/18 07:22:05;;;;;;;;;;;3.90;99.90;;;;;;5096155;28;19909;-56
2022/03/18 07:24:30;;;;;;;;;;;4.00;99.90;;;;;;5096134;28;19908;-56
2022/03/18 07:26:56;;;;;;;;;;;4.10;99.90;;;;;;5096096;28;19991;-55
2022/03/18 07:29:21;;;;;;;;;;;4.20;99.90;;;;;;5096439;28;19912;-54
2022/03/18 07:31:47;;;;;;;;;;;4.30;99.90;;;;;;5097344;28;19920;-56
2022/03/18 07:34:12;;;;;;;;;;;4.40;99.90;;;;;;5116468;28;19912;-56
2022/03/18 07:36:38;;;;;;;;;;;4.50;99.90;;;;;;5109865;28;19991;-56
2022/03/18 07:39:03;;;;;;;;;;;4.60;99.90;;;;;;5100084;28;19915;-56
2022/03/18 07:41:29;;;;;;;;;;;4.70;99.90;;;;;;5116704;28;19908;-55
2022/03/18 07:43:54;;;;;;;;;;;4.80;99.90;;;;;;5104630;28;19919;-56
2022/03/18 07:46:20;;;;;;;;;;;5.00;99.90;;;;;;5095743;28;19912;-56
2022/03/18 07:48:46;;;;;;;;;;;5.10;99.90;;;;;;5096248;28;19941;-57
2022/03/18 07:51:12;;;;;;;;;;;5.20;99.90;;;;;;5095232;28;19919;-56
2022/03/18 07:53:37;;;;;;;;;;;5.30;99.90;;;;;;5096070;28;19908;-55
2022/03/18 07:56:04;;;;;;;;;;;5.40;99.90;;;;;;5106262;28;19998;-56
2022/03/18 07:58:29;;;;;;;;;;;5.60;99.90;;;;;;5115728;28;20635;-56
2022/03/18 08:00:55;;;;;;;;;;;5.70;99.90;;;;;;5102810;28;20011;-57
2022/03/18 08:03:20;;;;;;;;;;;5.90;99.90;;;;;;5096405;28;19912;-57
2022/03/18 08:05:46;;;;;;;;;;;6.00;99.90;;;;;;5115523;28;19914;-56
2022/03/18 08:08:11;;;;;;;;;;;6.10;99.90;;;;;;5107567;28;19915;-56
2022/03/18 08:10:37;;;;;;;;;;;6.20;99.90;;;;;;5095708;28;19951;-56
2022/03/18 08:13:03;;;;;;;;;;;6.30;99.90;;;;;;5094704;28;19916;-56
2022/03/18 08:15:28;;;;;;;;;;;6.40;99.90;;;;;;5094782;28;19987;-56
2022/03/18 08:17:54;;;;;;;;;;;6.50;99.90;;;;;;5095585;28;19908;-55
2022/03/18 08:20:20;;;;;;;;;;;6.70;99.90;;;;;;5102227;28;20310;-56
2022/03/18 08:22:46;;;;;;;;;;;6.80;99.90;;;;;;5115860;28;19911;-56
2022/03/18 08:25:12;;;;;;;;;;;6.90;99.90;;;;;;5115516;28;19914;-56
2022/03/18 08:27:38;;;;;;;;;;;7.10;99.90;;;;;;5100729;28;20411;-56
2022/03/18 08:30:04;;;;;;;;;;;7.20;99.90;;;;;;5094394;28;19924;-56
2022/03/18 08:32:30;;;;;;;;;;;7.30;99.90;;;;;;5095082;28;19938;-55
2022/03/18 08:34:56;;;;;;;;;;;7.50;99.90;;;;;;5094433;28;20484;-56
2022/03/18 08:38:22;;;;;;;;;;;7.60;99.90;;;;;;5094963;28;21064;-56
2022/03/18 08:40:17;;;;;;;;;;;7.70;99.90;;;;;;5084904;28;20729;-56
2022/03/18 08:42:42;;;;;;;;;;;7.90;99.90;;;;;;5095232;28;19908;-56
2022/03/18 08:45:08;;;;;;;;;;;8.00;99.90;;;;;;5094233;28;20381;-56
2022/03/18 08:47:34;;;;;;;;;;;8.10;99.90;;;;;;5094243;28;19912;-55
2022/03/18 08:49:59;;;;;;;;;;;8.20;99.90;;;;;;5094954;28;20073;-55
2022/03/18 08:52:25;;;;;;;;;;;8.30;99.90;;;;;;5094438;28;20006;-55
2022/03/18 08:54:50;;;;;;;;;;;8.40;99.90;;;;;;5094084;28;19983;-56
2022/03/18 08:57:16;;;;;;;;;;;8.50;99.90;;;;;;5094407;28;19918;-56
2022/03/18 08:59:42;;;;;;;;;;;8.60;99.90;;;;;;5094438;28;19915;-56
2022/03/18 09:02:08;;;;;;;;;;;8.70;99.90;;;;;;5093214;28;19945;-55
2022/03/18 09:04:33;;;;;;;;;;;8.90;99.90;;;;;;5110176;28;19912;-56
2022/03/18 09:06:59;;;;;;;;;;;9.00;99.90;;;;;;5096676;28;19994;-56
2022/03/18 09:09:24;;;;;;;;;;;9.10;99.90;;;;;;5093940;28;19950;-56
2022/03/18 09:11:49;;;;;;;;;;;9.20;99.90;;;;;;5094511;28;19916;-56
2022/03/18 09:14:15;;;;;;;;;;;9.40;99.90;;;;;;5094152;28;20271;-56
2022/03/18 09:16:40;;;;;;;;;;;9.50;99.90;;;;;;5093936;28;19915;-56
2022/03/18 09:19:06;;;;;;;;;;;9.60;99.90;;;;;;5093977;28;19908;-55
2022/03/18 09:21:32;;;;;;;;;;;9.70;99.90;;;;;;5094175;28;19908;-55
2022/03/18 09:23:58;;;;;;;;;;;9.80;99.90;;;;;;5092609;28;19966;-56
2022/03/18 09:26:23;;;;;;;;;;;10.00;99.90;;;;;;5093370;28;20405;-55
2022/03/18 09:28:49;;;;;;;;;;;10.10;99.90;;;;;;5093852;28;20325;-56
2022/03/18 09:31:14;;;;;;;;;;;10.20;99.90;;;;;;5092856;28;19980;-56
2022/03/18 09:33:43;;;;;;;;;;;10.40;99.90;;;;;;5093885;28;19915;-56
2022/03/18 09:36:10;;;;;;;;;;;10.50;99.90;;;;;;5091788;28;19912;-56
2022/03/18 09:38:36;;;;;;;;;;;10.60;99.90;;;;;;5093871;28;19908;-55
2022/03/18 09:41:01;;;;;;;;;;;10.80;99.90;;;;;;5093574;28;19908;-57
2022/03/18 09:43:31;;;;;;;;;;;11.00;99.90;;;;;;5093101;28;19957;-56
2022/03/18 09:45:57;;;;;;;;;;;11.20;99.90;;;;;;5093240;28;20283;-56
2022/03/18 09:48:23;;;;;;;;;;;11.30;99.90;;;;;;5092819;28;19920;-56
2022/03/18 09:50:50;;;;;;;;;;;11.30;99.90;;;;;;5092793;28;19984;-56
2022/03/18 09:53:15;;;;;;;;;;;11.40;99.90;;;;;;5092631;28;19918;-56
2022/03/18 09:55:41;;;;;;;;;;;11.50;99.90;;;;;;5093475;28;19908;-55
2022/03/18 09:58:07;;;;;;;;;;;11.50;99.90;;;;;;5092563;28;20355;-57
2022/03/18 10:00:32;;;;;;;;;;;11.60;99.90;;;;;;5093074;28;19919;-55
2022/03/18 10:03:16;;;;;;;;;;;11.60;99.90;;;;;;5093166;28;19912;-55
2022/03/18 10:05:45;;;;;;;;;;;11.70;99.90;;;;;;5092815;28;20379;-56
2022/03/18 10:08:11;;;;;;;;;;;11.80;99.90;;;;;;5092899;28;19912;-56
2022/03/18 10:10:44;;;;;;;;;;;11.90;99.90;;;;;;5092913;28;19912;-56
2022/03/18 10:13:10;;;;;;;;;;;12.00;99.90;;;;;;5092215;28;19948;-56
2022/03/18 10:15:36;;;;;;;;;;;12.20;99.90;;;;;;5092888;28;20451;-56
2022/03/18 10:18:02;;;;;;;;;;;12.30;99.90;;;;;;5092864;28;19915;-55
2022/03/18 10:20:32;;;;;;;;;;;12.40;99.90;;;;;;5092547;28;19991;-56
2022/03/18 10:23:01;;;;;;;;;;;12.50;99.90;;;;;;5093109;28;19909;-55
2022/03/18 10:25:37;;;;;;;;;;;12.60;99.90;;;;;;5092575;28;19914;-55
2022/03/18 10:28:06;;;;;;;;;;;12.70;99.90;;;;;;5092723;28;19962;-57
2022/03/18 10:30:32;;;;;;;;;;;12.80;99.90;;;;;;5092800;28;19927;-56
2022/03/18 10:32:58;;;;;;;;;;;12.90;99.90;;;;;;5092263;28;19916;-55
2022/03/18 10:38:32;;;;;;;;;;;13.00;99.90;;;;;;5092181;28;20305;-56
2022/03/18 10:40:59;;;;;;;;;;;13.00;99.90;;;;;;5091850;28;19908;-56
2022/03/18 10:43:24;;;;;;;;;;;13.10;99.90;;;;;;5091370;28;19916;-55
2022/03/18 10:46:00;;;;;;;;;;;13.20;99.90;;;;;;5092987;28;19923;-56
2022/03/18 10:48:25;;;;;;;;;;;13.30;99.90;;;;;;5092107;28;20003;-57
2022/03/18 10:51:00;;;;;;;;;;;13.40;99.90;;;;;;5092213;28;20003;-57
2022/03/18 10:53:28;;;;;;;;;;;13.50;99.90;;;;;;5091872;28;19909;-56
2022/03/18 10:55:59;;;;;;;;;;;13.50;99.90;;;;;;5092626;28;19919;-55
2022/03/18 10:58:24;;;;;;;;;;;13.70;99.90;;;;;;5092559;28;19920;-56
2022/03/18 11:00:50;;;;;;;;;;;13.80;99.90;;;;;;5092265;28;20306;-55
2022/03/18 11:03:16;;;;;;;;;;;13.90;99.90;;;;;;5091747;28;20484;-56
2022/03/18 11:05:42;;;;;;;;;;;14.00;99.90;;;;;;5091790;28;19962;-57
2022/03/18 11:08:13;;;;;;;;;;;13.90;99.90;;;;;;5091733;28;19908;-56
2022/03/18 11:13:27;;;;;;;;;;;14.00;99.90;;;;;;5092631;28;20424;-55
2022/03/18 11:15:53;;;;;;;;;;;14.10;99.90;;;;;;5091164;28;19952;-56
2022/03/18 11:18:19;;;;;;;;;;;14.20;99.90;;;;;;5091851;28;19962;-56
2022/03/18 11:20:45;;;;;;;;;;;14.30;99.90;;;;;;5090863;28;19951;-56
2022/03/18 11:23:15;;;;;;;;;;;14.40;99.90;;;;;;5090834;28;19961;-56
2022/03/18 11:25:40;;;;;;;;;;;14.40;99.90;;;;;;5091614;28;19908;-55
2022/03/18 11:28:06;;;;;;;;;;;14.50;99.90;;;;;;5090776;28;19908;-55
2022/03/18 11:30:35;;;;;;;;;;;14.70;99.90;;;;;;5089911;28;19924;-56
2022/03/18 11:33:10;;;;;;;;;;;14.70;99.90;;;;;;5091795;28;20331;-56
2022/03/18 11:35:51;;;;;;;;;;;14.90;99.90;;;;;;5091616;28;19912;-55
2022/03/18 11:38:18;;;;;;;;;;;15.00;99.90;;;;;;5092004;28;19908;-55
2022/03/18 11:41:10;;;;;;;;;;;15.10;99.30;;;;;;5090594;28;19912;-55
2022/03/18 11:43:36;;;;;;;;;;;15.20;99.90;;;;;;5087557;28;19913;-55
2022/03/18 11:46:13;;;;;;;;;;;15.30;98.90;;;;;;5091138;28;19912;-55
2022/03/18 11:48:54;;;;;;;;;;;15.20;98.60;;;;;;5091607;28;19908;-56
2022/03/18 11:51:34;;;;;;;;;;;15.30;96.00;;;;;;5093745;28;20275;-55
2022/03/18 11:54:00;;;;;;;;;;;15.50;99.90;;;;;;5095421;28;19930;-55
2022/03/18 11:56:46;;;;;;;;;;;15.60;99.90;;;;;;5095947;28;19912;-55
2022/03/18 11:59:23;;;;;;;;;;;15.80;99.90;;;;;;5095644;28;19931;-55
2022/03/18 12:02:09;;;;;;;;;;;15.80;97.60;;;;;;5095382;28;19958;-55
2022/03/18 12:04:36;;;;;;;;;;;15.90;94.80;;;;;;5095213;28;19915;-55
2022/03/18 12:07:09;;;;;;;;;;;16.00;99.90;;;;;;5095562;28;19916;-55
2022/03/18 12:09:53;;;;;;;;;;;16.10;99.90;;;;;;5095160;28;20416;-54
2022/03/18 12:12:39;;;;;;;;;;;16.10;92.90;;;;;;5094701;28;19920;-55
2022/03/18 12:15:06;;;;;;;;;;;16.10;91.00;;;;;;5095481;28;19915;-55
2022/03/18 12:17:39;;;;;;;;;;;16.20;90.50;;;;;;5095446;28;19908;-55
2022/03/18 12:20:06;;;;;;;;;;;16.30;89.70;;;;;;5074582;28;19950;-56
2022/03/18 12:22:36;;;;;;;;;;;16.40;86.30;;;;;;5075146;28;19908;-55
2022/03/18 12:25:01;;;;;;;;;;;16.60;91.50;;;;;;5074495;28;19955;-56
2022/03/18 12:27:29;;;;;;;;;;;16.60;81.90;;;;;;5075072;28;19960;-55
2022/03/18 12:29:58;;;;;;;;;;;16.70;83.70;;;;;;5074487;28;19921;-55
2022/03/18 12:32:24;;;;;;;;;;;16.70;91.50;;;;;;5074470;28;19932;-56
2022/03/18 12:34:51;;;;;;;;;;;16.80;81.00;;;;;;5075063;28;19909;-56
2022/03/18 12:37:24;;;;;;;;;;;16.80;76.90;;;;;;5074611;28;20008;-55
2022/03/18 12:40:08;;;;;;;;;;;17.00;84.70;;;;;;5078593;28;19912;-55
2022/03/18 12:42:46;;;;;;;;;;;16.90;83.60;;;;;;5094303;28;19948;-55
2022/03/18 12:45:12;;;;;;;;;;;16.90;76.20;;;;;;5094827;28;19912;-56
2022/03/18 12:47:37;;;;;;;;;;;17.10;90.70;;;;;;5094518;28;19916;-55
2022/03/18 12:50:03;;;;;;;;;;;17.20;87.00;;;;;;5094687;28;19961;-55
2022/03/18 12:52:29;;;;;;;;;;;17.30;80.60;;;;;;5094790;28;19916;-55
2022/03/18 12:55:10;;;;;;;;;;;17.40;82.30;;;;;;5094248;28;19916;-56
2022/03/18 12:57:37;;;;;;;;;;;17.40;77.90;;;;;;5094830;28;19908;-55
2022/03/18 13:00:04;;;;;;;;;;;17.50;82.00;;;;;;5093935;28;19912;-55
2022/03/18 13:02:29;;;;;;;;;;;17.50;86.60;;;;;;5094033;28;19934;-55
2022/03/18 13:04:56;;;;;;;;;;;17.60;79.50;;;;;;5094645;28;20438;-55
2022/03/18 13:07:23;;;;;;;;;;;17.70;69.80;;;;;;5094252;28;19973;-56
2022/03/18 13:09:49;;;;;;;;;;;17.80;66.30;;;;;;5094692;28;20396;-56
2022/03/18 13:12:25;;;;;;;;;;;17.70;74.20;;;;;;5094246;28;19916;-55
2022/03/18 13:14:54;;;;;;;;;;;17.30;75.20;;;;;;5093745;28;19915;-55
2022/03/18 13:17:31;;;;;;;;;;;16.90;76.60;;;;;;5094212;28;19908;-55
2022/03/18 13:19:57;;;;;;;;;;;16.70;82.30;;;;;;5094375;28;19919;-56
2022/03/18 13:22:23;;;;;;;;;;;16.70;79.70;;;;;;5093587;28;19908;-55
2022/03/18 13:24:50;;;;;;;;;;;16.90;87.30;;;;;;5094183;28;19908;-55
2022/03/18 13:27:22;;;;;;;;;;;17.30;83.20;;;;;;5093830;28;20347;-56
2022/03/18 13:32:51;;;;;;;;;;;17.70;75.00;;;;;;5093832;28;20091;-55
2022/03/18 13:35:17;;;;;;;;;;;17.70;66.60;;;;;;5093163;28;19943;-55
2022/03/18 13:38:01;;;;;;;;;;;17.80;74.00;;;;;;5093733;28;19908;-55
2022/03/18 13:40:26;;;;;;;;;;;18.00;72.30;;;;;;5094177;28;19912;-55
2022/03/18 13:43:04;;;;;;;;;;;17.80;70.10;;;;;;5092866;28;19960;-56
2022/03/18 13:45:30;;;;;;;;;;;17.80;73.80;;;;;;5093855;28;20334;-55
2022/03/18 13:47:55;;;;;;;;;;;17.90;65.10;;;;;;5093485;28;20266;-56
2022/03/18 13:50:21;;;;;;;;;;;18.50;73.60;;;;;;5092930;28;19908;-56
2022/03/18 13:52:48;;;;;;;;;;;18.80;66.80;;;;;;5093394;28;19916;-55
2022/03/18 13:55:32;;;;;;;;;;;19.10;66.90;;;;;;5093312;28;20365;-56
2022/03/18 13:57:59;;;;;;;;;;;19.50;72.40;;;;;;5092865;28;19912;-56
2022/03/18 14:00:28;;;;;;;;;;;19.70;66.10;;;;;;5093222;28;19919;-56
2022/03/18 14:03:08;;;;;;;;;;;19.40;66.60;;;;;;5110052;28;19972;-56
2022/03/18 14:05:34;;;;;;;;;;;18.70;65.60;;;;;;5108547;28;19915;-56
2022/03/18 14:08:01;;;;;;;;;;;18.40;74.70;;;;;;5092921;28;20347;-55
2022/03/18 14:10:40;;;;;;;;;;;18.30;61.50;;;;;;5092797;28;19913;-56
2022/03/18 14:13:06;;;;;;;;;;;17.90;64.10;;;;;;5092216;28;19978;-55
2022/03/18 14:15:36;;;;;;;;;;;17.70;66.30;;;;;;5092906;28;19958;-55
2022/03/18 14:18:09;;;;;;;;;;;17.90;65.80;;;;;;5092761;28;19912;-56
2022/03/18 14:20:54;;;;;;;;;;;18.40;67.20;;;;;;5093419;28;19912;-55
2022/03/18 14:23:21;;;;;;;;;;;18.70;62.70;;;;;;5092895;28;20369;-56
2022/03/18 14:25:47;;;;;;;;;;;18.40;57.20;;;;;;5092471;28;20053;-55
2022/03/18 14:28:20;;;;;;;;;;;18.50;63.50;;;;;;5093116;28;20562;-55
2022/03/18 14:30:47;;;;;;;;;;;18.90;56.70;;;;;;5092690;28;20003;-56
2022/03/18 14:33:16;;;;;;;;;;;19.50;62.80;;;;;;5091598;28;22366;-56
2022/03/18 14:35:41;;;;;;;;;;;19.80;56.90;;;;;;5092728;28;20251;-55
2022/03/18 14:38:07;;;;;;;;;;;19.90;60.90;;;;;;5092370;28;19966;-55
2022/03/18 14:40:35;;;;;;;;;;;20.00;56.80;;;;;;5092462;28;19908;-55
2022/03/18 14:43:00;;;;;;;;;;;20.10;56.90;;;;;;5092660;28;19931;-56
2022/03/18 14:45:25;;;;;;;;;;;20.70;57.30;;;;;;5093138;28;20330;-55
2022/03/18 14:47:51;;;;;;;;;;;20.90;60.80;;;;;;5092473;28;19951;-55
2022/03/18 14:50:17;;;;;;;;;;;21.40;59.80;;;;;;5092793;28;20366;-56
2022/03/18 14:52:43;;;;;;;;;;;21.50;57.30;;;;;;5092228;28;19916;-56
2022/03/18 14:57:53;;;;;;;;;;;21.40;49.10;;;;;;5093201;28;19973;-55